sensor_id;sensor_type;location;lat;lon;timestamp;P1;durP1;ratioP1;P2;durP2;ratioP2
64959;SDS011;51487;52.266;10.542;2023-03-07T00:02:23;17.50;;;12.70;;
64959;SDS011;51487;52.266;10.542;2023-03-07T00:04:48;16.60;;;11.65;;
64959;SDS011;51487;52.266;10.542;2023-03-07T00:07:14;17.13;;;12.15;;
64959;SDS011;51487;52.266;10.542;2023-03-07T00:09:40;17.10;;;12.65;;
64959;SDS011;51487;52.266;10.542;2023-03-07T00:12:06;18.02;;;12.45;;
64959;SDS011;51487;52.266;10.542;2023-03-07T00:14:33;18.10;;;12.55;;
64959;SDS011;51487;52.266;10.542;2023-03-07T00:16:59;17.50;;;12.90;;
64959;SDS011;51487;52.266;10.542;2023-03-07T00:19:25;19.30;;;12.48;;
64959;SDS011;51487;52.266;10.542;2023-03-07T00:21:51;20.13;;;12.82;;
64959;SDS011;51487;52.266;10.542;2023-03-07T00:24:16;19.50;;;13.00;;
64959;SDS011;51487;52.266;10.542;2023-03-07T00:26:42;18.75;;;13.00;;
64959;SDS011;51487;52.266;10.542;2023-03-07T00:29:08;15.38;;;12.05;;
64959;SDS011;51487;52.266;10.542;2023-03-07T00:31:34;20.13;;;13.45;;
64959;SDS011;51487;52.266;10.542;2023-03-07T00:34:01;19.85;;;13.20;;
64959;SDS011;51487;52.266;10.542;2023-03-07T00:36:29;23.00;;;13.45;;
64959;SDS011;51487;52.266;10.542;2023-03-07T00:38:54;17.63;;;12.30;;
64959;SDS011;51487;52.266;10.542;2023-03-07T00:41:21;16.98;;;12.80;;
64959;SDS011;51487;52.266;10.542;2023-03-07T00:43:50;19.30;;;12.43;;
64959;SDS011;51487;52.266;10.542;2023-03-07T00:46:18;19.10;;;13.30;;
64959;SDS011;51487;52.266;10.542;2023-03-07T00:48:45;16.63;;;12.20;;
64959;SDS011;51487;52.266;10.542;2023-03-07T00:51:13;19.25;;;13.55;;
64959;SDS011;51487;52.266;10.542;2023-03-07T00:53:41;16.42;;;12.10;;
64959;SDS011;51487;52.266;10.542;2023-03-07T00:56:17;20.42;;;13.10;;
64959;SDS011;51487;52.266;10.542;2023-03-07T00:58:45;19.85;;;12.93;;
64959;SDS011;51487;52.266;10.542;2023-03-07T01:01:12;18.80;;;13.02;;
64959;SDS011;51487;52.266;10.542;2023-03-07T01:03:43;18.70;;;11.98;;
64959;SDS011;51487;52.266;10.542;2023-03-07T01:06:11;17.10;;;12.43;;
64959;SDS011;51487;52.266;10.542;2023-03-07T01:08:40;19.92;;;13.02;;
64959;SDS011;51487;52.266;10.542;2023-03-07T01:11:06;19.42;;;13.45;;
64959;SDS011;51487;52.266;10.542;2023-03-07T01:13:33;18.02;;;12.80;;
64959;SDS011;51487;52.266;10.542;2023-03-07T01:16:10;19.05;;;13.77;;
64959;SDS011;51487;52.266;10.542;2023-03-07T01:18:44;19.50;;;12.95;;
64959;SDS011;51487;52.266;10.542;2023-03-07T01:21:15;20.90;;;14.10;;
64959;SDS011;51487;52.266;10.542;2023-03-07T01:23:44;18.23;;;13.05;;
64959;SDS011;51487;52.266;10.542;2023-03-07T01:26:11;20.00;;;13.48;;
64959;SDS011;51487;52.266;10.542;2023-03-07T01:28:45;18.17;;;12.27;;
64959;SDS011;51487;52.266;10.542;2023-03-07T01:31:11;17.40;;;12.02;;
64959;SDS011;51487;52.266;10.542;2023-03-07T01:33:37;19.15;;;12.90;;
64959;SDS011;51487;52.266;10.542;2023-03-07T01:36:03;17.05;;;12.88;;
64959;SDS011;51487;52.266;10.542;2023-03-07T01:38:52;20.23;;;12.10;;
64959;SDS011;51487;52.266;10.542;2023-03-07T01:41:19;18.17;;;11.80;;
64959;SDS011;51487;52.266;10.542;2023-03-07T01:43:45;16.80;;;11.48;;
64959;SDS011;51487;52.266;10.542;2023-03-07T01:51:09;20.33;;;13.23;;
64959;SDS011;51487;52.266;10.542;2023-03-07T01:53:35;20.27;;;12.77;;
64959;SDS011;51487;52.266;10.542;2023-03-07T01:56:02;20.00;;;13.40;;
64959;SDS011;51487;52.266;10.542;2023-03-07T01:58:29;19.23;;;12.93;;
64959;SDS011;51487;52.266;10.542;2023-03-07T02:00:55;19.65;;;11.80;;
64959;SDS011;51487;52.266;10.542;2023-03-07T02:06:07;22.05;;;12.55;;
64959;SDS011;51487;52.266;10.542;2023-03-07T02:08:36;17.50;;;11.80;;
64959;SDS011;51487;52.266;10.542;2023-03-07T02:11:03;18.85;;;11.82;;
64959;SDS011;51487;52.266;10.542;2023-03-07T02:13:31;17.02;;;12.02;;
64959;SDS011;51487;52.266;10.542;2023-03-07T02:15:58;21.80;;;13.38;;
64959;SDS011;51487;52.266;10.542;2023-03-07T02:18:27;18.10;;;12.32;;
64959;SDS011;51487;52.266;10.542;2023-03-07T02:21:18;18.65;;;12.40;;
64959;SDS011;51487;52.266;10.542;2023-03-07T02:23:57;20.83;;;12.25;;
64959;SDS011;51487;52.266;10.542;2023-03-07T02:28:57;19.67;;;13.63;;
64959;SDS011;51487;52.266;10.542;2023-03-07T02:31:24;18.55;;;12.60;;
64959;SDS011;51487;52.266;10.542;2023-03-07T02:33:50;20.08;;;12.90;;
64959;SDS011;51487;52.266;10.542;2023-03-07T02:36:17;21.58;;;13.38;;
64959;SDS011;51487;52.266;10.542;2023-03-07T02:38:48;21.13;;;13.40;;
64959;SDS011;51487;52.266;10.542;2023-03-07T02:41:19;20.85;;;12.82;;
64959;SDS011;51487;52.266;10.542;2023-03-07T02:43:50;17.38;;;12.63;;
64959;SDS011;51487;52.266;10.542;2023-03-07T02:46:15;21.20;;;12.82;;
64959;SDS011;51487;52.266;10.542;2023-03-07T02:48:41;18.90;;;13.40;;
64959;SDS011;51487;52.266;10.542;2023-03-07T02:51:07;17.33;;;11.32;;
64959;SDS011;51487;52.266;10.542;2023-03-07T02:53:32;17.35;;;11.23;;
64959;SDS011;51487;52.266;10.542;2023-03-07T02:55:58;17.63;;;11.25;;
64959;SDS011;51487;52.266;10.542;2023-03-07T02:58:24;17.73;;;11.50;;
64959;SDS011;51487;52.266;10.542;2023-03-07T03:00:49;17.27;;;10.90;;
64959;SDS011;51487;52.266;10.542;2023-03-07T03:03:15;14.00;;;10.25;;
64959;SDS011;51487;52.266;10.542;2023-03-07T03:05:40;20.60;;;11.57;;
64959;SDS011;51487;52.266;10.542;2023-03-07T03:08:06;15.73;;;10.25;;
64959;SDS011;51487;52.266;10.542;2023-03-07T03:10:32;14.50;;;10.23;;
64959;SDS011;51487;52.266;10.542;2023-03-07T03:12:57;13.55;;;9.95;;
64959;SDS011;51487;52.266;10.542;2023-03-07T03:15:22;16.35;;;10.50;;
64959;SDS011;51487;52.266;10.542;2023-03-07T03:17:48;15.30;;;10.50;;
64959;SDS011;51487;52.266;10.542;2023-03-07T03:20:16;17.77;;;11.57;;
64959;SDS011;51487;52.266;10.542;2023-03-07T03:22:43;17.77;;;11.55;;
64959;SDS011;51487;52.266;10.542;2023-03-07T03:25:09;17.77;;;11.85;;
64959;SDS011;51487;52.266;10.542;2023-03-07T03:27:37;13.48;;;9.13;;
64959;SDS011;51487;52.266;10.542;2023-03-07T03:30:04;16.08;;;10.32;;
64959;SDS011;51487;52.266;10.542;2023-03-07T03:32:32;13.02;;;9.73;;
64959;SDS011;51487;52.266;10.542;2023-03-07T03:35:00;17.23;;;10.63;;
64959;SDS011;51487;52.266;10.542;2023-03-07T03:37:25;14.27;;;10.80;;
64959;SDS011;51487;52.266;10.542;2023-03-07T03:39:52;15.00;;;10.63;;
64959;SDS011;51487;52.266;10.542;2023-03-07T03:42:20;14.48;;;10.52;;
64959;SDS011;51487;52.266;10.542;2023-03-07T03:44:46;16.02;;;10.18;;
64959;SDS011;51487;52.266;10.542;2023-03-07T03:47:11;15.48;;;10.23;;
64959;SDS011;51487;52.266;10.542;2023-03-07T03:49:37;16.67;;;10.55;;
64959;SDS011;51487;52.266;10.542;2023-03-07T03:52:02;16.02;;;11.57;;
64959;SDS011;51487;52.266;10.542;2023-03-07T03:54:29;17.13;;;10.43;;
64959;SDS011;51487;52.266;10.542;2023-03-07T03:56:55;15.38;;;10.73;;
64959;SDS011;51487;52.266;10.542;2023-03-07T03:59:20;13.90;;;9.85;;
64959;SDS011;51487;52.266;10.542;2023-03-07T04:01:46;14.57;;;10.65;;
64959;SDS011;51487;52.266;10.542;2023-03-07T04:04:12;14.73;;;9.35;;
64959;SDS011;51487;52.266;10.542;2023-03-07T04:06:38;15.05;;;10.00;;
64959;SDS011;51487;52.266;10.542;2023-03-07T04:09:04;14.10;;;9.95;;
64959;SDS011;51487;52.266;10.542;2023-03-07T04:11:30;13.95;;;9.38;;
64959;SDS011;51487;52.266;10.542;2023-03-07T04:13:56;14.15;;;9.43;;
64959;SDS011;51487;52.266;10.542;2023-03-07T04:16:23;13.95;;;9.73;;
64959;SDS011;51487;52.266;10.542;2023-03-07T04:18:49;13.40;;;9.55;;
64959;SDS011;51487;52.266;10.542;2023-03-07T04:21:16;14.38;;;9.63;;
64959;SDS011;51487;52.266;10.542;2023-03-07T04:23:43;13.35;;;9.05;;
64959;SDS011;51487;52.266;10.542;2023-03-07T04:26:09;12.43;;;9.35;;
64959;SDS011;51487;52.266;10.542;2023-03-07T04:28:36;15.77;;;9.60;;
64959;SDS011;51487;52.266;10.542;2023-03-07T04:31:08;12.75;;;9.20;;
64959;SDS011;51487;52.266;10.542;2023-03-07T04:33:42;15.15;;;9.40;;
64959;SDS011;51487;52.266;10.542;2023-03-07T04:36:08;12.90;;;8.82;;
64959;SDS011;51487;52.266;10.542;2023-03-07T04:38:36;12.75;;;8.73;;
64959;SDS011;51487;52.266;10.542;2023-03-07T04:41:06;14.10;;;9.15;;
64959;SDS011;51487;52.266;10.542;2023-03-07T04:43:35;14.85;;;9.63;;
64959;SDS011;51487;52.266;10.542;2023-03-07T04:46:00;13.48;;;9.63;;
64959;SDS011;51487;52.266;10.542;2023-03-07T04:48:27;13.10;;;9.13;;
64959;SDS011;51487;52.266;10.542;2023-03-07T04:50:52;14.32;;;9.27;;
64959;SDS011;51487;52.266;10.542;2023-03-07T04:53:18;12.88;;;9.07;;
64959;SDS011;51487;52.266;10.542;2023-03-07T04:55:44;15.75;;;8.90;;
64959;SDS011;51487;52.266;10.542;2023-03-07T04:58:10;12.80;;;8.88;;
64959;SDS011;51487;52.266;10.542;2023-03-07T05:00:40;12.52;;;9.18;;
64959;SDS011;51487;52.266;10.542;2023-03-07T05:03:08;12.35;;;8.57;;
64959;SDS011;51487;52.266;10.542;2023-03-07T05:05:35;14.02;;;8.32;;
64959;SDS011;51487;52.266;10.542;2023-03-07T05:08:01;12.70;;;8.85;;
64959;SDS011;51487;52.266;10.542;2023-03-07T05:10:28;11.85;;;8.25;;
64959;SDS011;51487;52.266;10.542;2023-03-07T05:12:58;12.13;;;8.75;;
64959;SDS011;51487;52.266;10.542;2023-03-07T05:15:24;12.13;;;9.13;;
64959;SDS011;51487;52.266;10.542;2023-03-07T05:17:49;12.85;;;8.85;;
64959;SDS011;51487;52.266;10.542;2023-03-07T05:20:15;11.98;;;8.38;;
64959;SDS011;51487;52.266;10.542;2023-03-07T05:22:41;11.75;;;8.60;;
64959;SDS011;51487;52.266;10.542;2023-03-07T05:25:07;11.82;;;8.55;;
64959;SDS011;51487;52.266;10.542;2023-03-07T05:27:33;11.43;;;7.93;;
64959;SDS011;51487;52.266;10.542;2023-03-07T05:29:58;12.38;;;8.75;;
64959;SDS011;51487;52.266;10.542;2023-03-07T05:32:24;11.05;;;8.10;;
64959;SDS011;51487;52.266;10.542;2023-03-07T05:34:49;11.55;;;8.60;;
64959;SDS011;51487;52.266;10.542;2023-03-07T05:37:15;11.15;;;8.43;;
64959;SDS011;51487;52.266;10.542;2023-03-07T05:39:41;11.52;;;8.00;;
64959;SDS011;51487;52.266;10.542;2023-03-07T05:42:06;13.10;;;8.57;;
64959;SDS011;51487;52.266;10.542;2023-03-07T05:44:32;12.00;;;8.57;;
64959;SDS011;51487;52.266;10.542;2023-03-07T05:46:57;11.30;;;9.07;;
64959;SDS011;51487;52.266;10.542;2023-03-07T05:49:23;11.00;;;8.23;;
64959;SDS011;51487;52.266;10.542;2023-03-07T05:51:49;11.52;;;8.93;;
64959;SDS011;51487;52.266;10.542;2023-03-07T05:54:15;12.13;;;8.38;;
64959;SDS011;51487;52.266;10.542;2023-03-07T05:56:41;13.50;;;9.07;;
64959;SDS011;51487;52.266;10.542;2023-03-07T05:59:06;10.65;;;8.00;;
64959;SDS011;51487;52.266;10.542;2023-03-07T06:01:33;12.55;;;8.75;;
64959;SDS011;51487;52.266;10.542;2023-03-07T06:03:59;11.63;;;8.35;;
64959;SDS011;51487;52.266;10.542;2023-03-07T06:06:24;12.30;;;8.15;;
64959;SDS011;51487;52.266;10.542;2023-03-07T06:08:50;13.02;;;8.98;;
64959;SDS011;51487;52.266;10.542;2023-03-07T06:11:15;12.73;;;7.97;;
64959;SDS011;51487;52.266;10.542;2023-03-07T06:13:41;11.18;;;8.40;;
64959;SDS011;51487;52.266;10.542;2023-03-07T06:16:06;11.90;;;8.07;;
64959;SDS011;51487;52.266;10.542;2023-03-07T06:18:32;11.23;;;7.97;;
64959;SDS011;51487;52.266;10.542;2023-03-07T06:21:01;11.25;;;8.60;;
64959;SDS011;51487;52.266;10.542;2023-03-07T06:23:31;13.15;;;9.27;;
64959;SDS011;51487;52.266;10.542;2023-03-07T06:26:00;12.63;;;8.57;;
64959;SDS011;51487;52.266;10.542;2023-03-07T06:28:27;10.90;;;7.72;;
64959;SDS011;51487;52.266;10.542;2023-03-07T06:30:54;11.70;;;8.10;;
64959;SDS011;51487;52.266;10.542;2023-03-07T06:33:20;8.93;;;6.57;;
64959;SDS011;51487;52.266;10.542;2023-03-07T06:35:45;10.10;;;7.20;;
64959;SDS011;51487;52.266;10.542;2023-03-07T06:38:12;8.73;;;6.97;;
64959;SDS011;51487;52.266;10.542;2023-03-07T06:40:39;9.18;;;7.57;;
64959;SDS011;51487;52.266;10.542;2023-03-07T06:43:05;9.18;;;6.90;;
64959;SDS011;51487;52.266;10.542;2023-03-07T06:45:31;8.82;;;6.80;;
64959;SDS011;51487;52.266;10.542;2023-03-07T06:47:57;9.15;;;6.68;;
64959;SDS011;51487;52.266;10.542;2023-03-07T06:50:23;7.50;;;5.63;;
64959;SDS011;51487;52.266;10.542;2023-03-07T06:52:49;6.20;;;5.20;;
64959;SDS011;51487;52.266;10.542;2023-03-07T06:55:16;6.80;;;4.35;;
64959;SDS011;51487;52.266;10.542;2023-03-07T06:57:43;6.20;;;3.65;;
64959;SDS011;51487;52.266;10.542;2023-03-07T07:00:09;4.72;;;3.30;;
64959;SDS011;51487;52.266;10.542;2023-03-07T07:02:36;3.30;;;3.00;;
64959;SDS011;51487;52.266;10.542;2023-03-07T07:05:02;3.97;;;2.83;;
64959;SDS011;51487;52.266;10.542;2023-03-07T07:07:29;4.20;;;3.08;;
64959;SDS011;51487;52.266;10.542;2023-03-07T07:09:55;5.50;;;3.53;;
64959;SDS011;51487;52.266;10.542;2023-03-07T07:12:20;4.10;;;3.05;;
64959;SDS011;51487;52.266;10.542;2023-03-07T07:14:46;6.53;;;3.75;;
64959;SDS011;51487;52.266;10.542;2023-03-07T07:17:12;4.20;;;3.42;;
64959;SDS011;51487;52.266;10.542;2023-03-07T07:19:38;5.07;;;3.47;;
64959;SDS011;51487;52.266;10.542;2023-03-07T07:22:03;6.28;;;4.05;;
64959;SDS011;51487;52.266;10.542;2023-03-07T07:24:30;4.32;;;3.20;;
64959;SDS011;51487;52.266;10.542;2023-03-07T07:26:55;5.30;;;3.65;;
64959;SDS011;51487;52.266;10.542;2023-03-07T07:29:21;5.55;;;4.28;;
64959;SDS011;51487;52.266;10.542;2023-03-07T07:31:47;5.47;;;4.60;;
64959;SDS011;51487;52.266;10.542;2023-03-07T07:34:16;7.13;;;4.10;;
64959;SDS011;51487;52.266;10.542;2023-03-07T07:36:41;6.20;;;4.13;;
64959;SDS011;51487;52.266;10.542;2023-03-07T07:39:07;5.20;;;4.15;;
64959;SDS011;51487;52.266;10.542;2023-03-07T07:41:35;5.38;;;4.35;;
64959;SDS011;51487;52.266;10.542;2023-03-07T07:44:00;9.43;;;4.95;;
64959;SDS011;51487;52.266;10.542;2023-03-07T07:46:26;4.65;;;3.63;;
64959;SDS011;51487;52.266;10.542;2023-03-07T07:48:53;5.13;;;3.97;;
64959;SDS011;51487;52.266;10.542;2023-03-07T07:51:19;5.43;;;3.42;;
64959;SDS011;51487;52.266;10.542;2023-03-07T07:53:45;5.50;;;3.50;;
64959;SDS011;51487;52.266;10.542;2023-03-07T07:56:11;4.40;;;3.05;;
64959;SDS011;51487;52.266;10.542;2023-03-07T07:58:37;4.53;;;2.90;;
64959;SDS011;51487;52.266;10.542;2023-03-07T08:01:13;3.20;;;2.60;;
64959;SDS011;51487;52.266;10.542;2023-03-07T08:03:44;6.25;;;2.53;;
64959;SDS011;51487;52.266;10.542;2023-03-07T08:06:10;5.30;;;2.15;;
64959;SDS011;51487;52.266;10.542;2023-03-07T08:08:36;2.40;;;2.20;;
64959;SDS011;51487;52.266;10.542;2023-03-07T08:11:02;3.30;;;2.55;;
64959;SDS011;51487;52.266;10.542;2023-03-07T08:13:28;5.78;;;2.47;;
64959;SDS011;51487;52.266;10.542;2023-03-07T08:15:54;3.38;;;2.05;;
64959;SDS011;51487;52.266;10.542;2023-03-07T08:18:20;4.93;;;2.90;;
64959;SDS011;51487;52.266;10.542;2023-03-07T08:20:45;4.90;;;2.47;;
64959;SDS011;51487;52.266;10.542;2023-03-07T08:23:11;5.57;;;2.90;;
64959;SDS011;51487;52.266;10.542;2023-03-07T08:25:36;3.95;;;3.03;;
64959;SDS011;51487;52.266;10.542;2023-03-07T08:28:03;3.28;;;2.55;;
64959;SDS011;51487;52.266;10.542;2023-03-07T08:30:30;4.05;;;2.90;;
64959;SDS011;51487;52.266;10.542;2023-03-07T08:32:58;4.93;;;3.03;;
64959;SDS011;51487;52.266;10.542;2023-03-07T08:35:25;4.93;;;3.03;;
64959;SDS011;51487;52.266;10.542;2023-03-07T08:37:55;3.38;;;2.25;;
64959;SDS011;51487;52.266;10.542;2023-03-07T08:40:23;2.90;;;2.38;;
64959;SDS011;51487;52.266;10.542;2023-03-07T08:42:50;3.05;;;2.20;;
64959;SDS011;51487;52.266;10.542;2023-03-07T08:45:16;2.95;;;2.35;;
64959;SDS011;51487;52.266;10.542;2023-03-07T08:47:42;4.60;;;2.28;;
64959;SDS011;51487;52.266;10.542;2023-03-07T08:50:07;3.28;;;2.20;;
64959;SDS011;51487;52.266;10.542;2023-03-07T08:52:34;3.90;;;2.20;;
64959;SDS011;51487;52.266;10.542;2023-03-07T08:54:59;2.83;;;1.98;;
64959;SDS011;51487;52.266;10.542;2023-03-07T08:57:25;3.13;;;2.05;;
64959;SDS011;51487;52.266;10.542;2023-03-07T08:59:51;3.35;;;2.22;;
64959;SDS011;51487;52.266;10.542;2023-03-07T09:02:16;3.53;;;2.00;;
64959;SDS011;51487;52.266;10.542;2023-03-07T09:04:42;2.75;;;1.95;;
64959;SDS011;51487;52.266;10.542;2023-03-07T09:07:07;3.67;;;2.33;;
64959;SDS011;51487;52.266;10.542;2023-03-07T09:09:33;2.25;;;1.98;;
64959;SDS011;51487;52.266;10.542;2023-03-07T09:11:59;2.33;;;1.88;;
64959;SDS011;51487;52.266;10.542;2023-03-07T09:14:24;2.70;;;2.05;;
64959;SDS011;51487;52.266;10.542;2023-03-07T09:16:50;2.10;;;1.90;;
64959;SDS011;51487;52.266;10.542;2023-03-07T09:19:15;2.17;;;1.98;;
64959;SDS011;51487;52.266;10.542;2023-03-07T09:21:41;2.25;;;2.00;;
64959;SDS011;51487;52.266;10.542;2023-03-07T09:24:06;3.55;;;2.33;;
64959;SDS011;51487;52.266;10.542;2023-03-07T09:26:33;2.25;;;1.90;;
64959;SDS011;51487;52.266;10.542;2023-03-07T09:28:58;4.30;;;2.17;;
64959;SDS011;51487;52.266;10.542;2023-03-07T09:31:24;1.80;;;1.70;;
64959;SDS011;51487;52.266;10.542;2023-03-07T09:33:50;1.95;;;1.60;;
64959;SDS011;51487;52.266;10.542;2023-03-07T09:36:16;5.30;;;2.30;;
64959;SDS011;51487;52.266;10.542;2023-03-07T09:38:43;2.13;;;1.75;;
64959;SDS011;51487;52.266;10.542;2023-03-07T09:52:13;2.42;;;2.00;;
64959;SDS011;51487;52.266;10.542;2023-03-07T09:54:54;5.32;;;2.28;;
64959;SDS011;51487;52.266;10.542;2023-03-07T09:57:36;3.03;;;1.90;;
64959;SDS011;51487;52.266;10.542;2023-03-07T10:05:52;3.08;;;1.90;;
64959;SDS011;51487;52.266;10.542;2023-03-07T10:08:29;6.15;;;2.20;;
64959;SDS011;51487;52.266;10.542;2023-03-07T10:11:01;2.45;;;1.67;;
64959;SDS011;51487;52.266;10.542;2023-03-07T10:16:31;5.18;;;1.85;;
64959;SDS011;51487;52.266;10.542;2023-03-07T10:19:30;3.88;;;2.00;;
64959;SDS011;51487;52.266;10.542;2023-03-07T10:22:20;1.83;;;1.50;;
64959;SDS011;51487;52.266;10.542;2023-03-07T10:25:13;3.75;;;1.80;;
64959;SDS011;51487;52.266;10.542;2023-03-07T10:27:51;6.28;;;1.70;;
64959;SDS011;51487;52.266;10.542;2023-03-07T10:30:24;4.07;;;1.88;;
64959;SDS011;51487;52.266;10.542;2023-03-07T10:32:55;2.30;;;1.65;;
64959;SDS011;51487;52.266;10.542;2023-03-07T10:35:23;4.45;;;1.80;;
64959;SDS011;51487;52.266;10.542;2023-03-07T10:43:33;4.22;;;2.00;;
64959;SDS011;51487;52.266;10.542;2023-03-07T10:48:35;2.33;;;1.60;;
64959;SDS011;51487;52.266;10.542;2023-03-07T10:54:15;3.33;;;1.73;;
64959;SDS011;51487;52.266;10.542;2023-03-07T10:59:41;1.75;;;1.48;;
64959;SDS011;51487;52.266;10.542;2023-03-07T11:04:54;2.47;;;1.80;;
64959;SDS011;51487;52.266;10.542;2023-03-07T11:09:57;3.55;;;1.90;;
64959;SDS011;51487;52.266;10.542;2023-03-07T11:12:25;3.65;;;1.92;;
64959;SDS011;51487;52.266;10.542;2023-03-07T11:15:08;3.60;;;2.00;;
64959;SDS011;51487;52.266;10.542;2023-03-07T11:17:47;2.47;;;1.90;;
64959;SDS011;51487;52.266;10.542;2023-03-07T11:20:18;4.53;;;2.10;;
64959;SDS011;51487;52.266;10.542;2023-03-07T11:23:12;1.65;;;1.55;;
64959;SDS011;51487;52.266;10.542;2023-03-07T11:25:41;2.80;;;1.92;;
64959;SDS011;51487;52.266;10.542;2023-03-07T11:28:27;2.53;;;2.15;;
64959;SDS011;51487;52.266;10.542;2023-03-07T11:31:20;2.15;;;1.83;;
64959;SDS011;51487;52.266;10.542;2023-03-07T11:36:39;5.03;;;2.00;;
64959;SDS011;51487;52.266;10.542;2023-03-07T11:42:20;2.03;;;1.80;;
64959;SDS011;51487;52.266;10.542;2023-03-07T11:44:59;2.03;;;1.80;;
64959;SDS011;51487;52.266;10.542;2023-03-07T11:50:22;3.25;;;2.22;;
64959;SDS011;51487;52.266;10.542;2023-03-07T11:58:57;2.85;;;1.95;;
64959;SDS011;51487;52.266;10.542;2023-03-07T12:01:53;2.58;;;1.77;;
64959;SDS011;51487;52.266;10.542;2023-03-07T12:10:34;2.05;;;1.75;;
64959;SDS011;51487;52.266;10.542;2023-03-07T12:13:20;1.70;;;1.60;;
64959;SDS011;51487;52.266;10.542;2023-03-07T12:16:24;2.38;;;1.98;;
64959;SDS011;51487;52.266;10.542;2023-03-07T12:19:27;2.78;;;1.80;;
64959;SDS011;51487;52.266;10.542;2023-03-07T12:25:23;2.28;;;1.80;;
64959;SDS011;51487;52.266;10.542;2023-03-07T12:30:26;2.55;;;1.58;;
64959;SDS011;51487;52.266;10.542;2023-03-07T12:33:14;2.63;;;2.00;;
64959;SDS011;51487;52.266;10.542;2023-03-07T12:36:08;2.88;;;2.28;;
64959;SDS011;51487;52.266;10.542;2023-03-07T12:38:55;1.80;;;1.70;;
64959;SDS011;51487;52.266;10.542;2023-03-07T12:44:40;4.30;;;2.20;;
64959;SDS011;51487;52.266;10.542;2023-03-07T12:47:24;3.25;;;2.00;;
64959;SDS011;51487;52.266;10.542;2023-03-07T12:49:53;1.95;;;1.85;;
64959;SDS011;51487;52.266;10.542;2023-03-07T12:52:48;2.83;;;1.90;;
64959;SDS011;51487;52.266;10.542;2023-03-07T12:58:20;2.08;;;1.80;;
64959;SDS011;51487;52.266;10.542;2023-03-07T13:06:38;2.10;;;1.90;;
64959;SDS011;51487;52.266;10.542;2023-03-07T13:09:06;2.20;;;2.00;;
64959;SDS011;51487;52.266;10.542;2023-03-07T13:12:06;2.75;;;1.90;;
64959;SDS011;51487;52.266;10.542;2023-03-07T13:14:44;2.72;;;2.00;;
64959;SDS011;51487;52.266;10.542;2023-03-07T13:25:53;1.80;;;1.70;;
64959;SDS011;51487;52.266;10.542;2023-03-07T13:27:54;1.65;;;1.50;;
64959;SDS011;51487;52.266;10.542;2023-03-07T13:43:00;1.75;;;1.60;;
64959;SDS011;51487;52.266;10.542;2023-03-07T13:48:03;2.08;;;1.63;;
64959;SDS011;51487;52.266;10.542;2023-03-07T13:51:17;1.77;;;1.65;;
64959;SDS011;51487;52.266;10.542;2023-03-07T13:53:44;1.65;;;1.55;;
64959;SDS011;51487;52.266;10.542;2023-03-07T13:58:47;1.70;;;1.60;;
64959;SDS011;51487;52.266;10.542;2023-03-07T14:04:11;1.60;;;1.50;;
64959;SDS011;51487;52.266;10.542;2023-03-07T14:09:14;1.70;;;1.60;;
64959;SDS011;51487;52.266;10.542;2023-03-07T14:28:46;3.53;;;1.70;;
64959;SDS011;51487;52.266;10.542;2023-03-07T14:34:00;1.80;;;1.70;;
64959;SDS011;51487;52.266;10.542;2023-03-07T14:36:39;1.50;;;1.40;;
64959;SDS011;51487;52.266;10.542;2023-03-07T14:39:04;2.85;;;1.70;;
64959;SDS011;51487;52.266;10.542;2023-03-07T14:52:51;1.63;;;1.52;;
64959;SDS011;51487;52.266;10.542;2023-03-07T14:55:24;1.70;;;1.60;;
64959;SDS011;51487;52.266;10.542;2023-03-07T14:57:59;2.20;;;1.80;;
64959;SDS011;51487;52.266;10.542;2023-03-07T15:00:25;3.28;;;1.90;;
64959;SDS011;51487;52.266;10.542;2023-03-07T15:02:57;3.28;;;1.67;;
64959;SDS011;51487;52.266;10.542;2023-03-07T15:05:33;1.90;;;1.55;;
64959;SDS011;51487;52.266;10.542;2023-03-07T15:10:36;2.50;;;1.67;;
64959;SDS011;51487;52.266;10.542;2023-03-07T15:13:07;1.83;;;1.55;;
64959;SDS011;51487;52.266;10.542;2023-03-07T15:15:51;3.65;;;1.75;;
64959;SDS011;51487;52.266;10.542;2023-03-07T15:18:26;2.30;;;1.95;;
64959;SDS011;51487;52.266;10.542;2023-03-07T15:21:06;2.80;;;1.83;;
64959;SDS011;51487;52.266;10.542;2023-03-07T15:23:40;1.90;;;1.75;;
64959;SDS011;51487;52.266;10.542;2023-03-07T15:26:06;2.88;;;2.10;;
64959;SDS011;51487;52.266;10.542;2023-03-07T15:28:36;1.90;;;1.77;;
64959;SDS011;51487;52.266;10.542;2023-03-07T15:31:07;2.17;;;1.75;;
64959;SDS011;51487;52.266;10.542;2023-03-07T15:33:34;3.30;;;2.45;;
64959;SDS011;51487;52.266;10.542;2023-03-07T15:36:19;3.00;;;1.95;;
64959;SDS011;51487;52.266;10.542;2023-03-07T15:38:51;2.30;;;1.70;;
64959;SDS011;51487;52.266;10.542;2023-03-07T15:41:36;2.78;;;1.55;;
64959;SDS011;51487;52.266;10.542;2023-03-07T15:44:03;2.50;;;1.95;;
64959;SDS011;51487;52.266;10.542;2023-03-07T15:46:35;2.75;;;1.70;;
64959;SDS011;51487;52.266;10.542;2023-03-07T15:49:12;3.45;;;2.10;;
64959;SDS011;51487;52.266;10.542;2023-03-07T15:51:48;3.42;;;2.30;;
64959;SDS011;51487;52.266;10.542;2023-03-07T15:54:23;4.15;;;2.33;;
64959;SDS011;51487;52.266;10.542;2023-03-07T15:56:55;2.60;;;1.90;;
64959;SDS011;51487;52.266;10.542;2023-03-07T15:59:32;3.92;;;2.25;;
64959;SDS011;51487;52.266;10.542;2023-03-07T16:04:55;5.50;;;1.90;;
64959;SDS011;51487;52.266;10.542;2023-03-07T16:07:21;3.92;;;2.00;;
64959;SDS011;51487;52.266;10.542;2023-03-07T16:09:47;5.40;;;2.05;;
64959;SDS011;51487;52.266;10.542;2023-03-07T16:12:14;4.25;;;1.83;;
64959;SDS011;51487;52.266;10.542;2023-03-07T16:14:43;2.10;;;1.70;;
64959;SDS011;51487;52.266;10.542;2023-03-07T16:17:16;1.70;;;1.52;;
64959;SDS011;51487;52.266;10.542;2023-03-07T16:19:45;5.95;;;1.80;;
64959;SDS011;51487;52.266;10.542;2023-03-07T16:22:14;7.13;;;2.13;;
64959;SDS011;51487;52.266;10.542;2023-03-07T16:24:42;2.97;;;1.80;;
64959;SDS011;51487;52.266;10.542;2023-03-07T16:27:11;3.20;;;1.95;;
64959;SDS011;51487;52.266;10.542;2023-03-07T16:29:41;2.95;;;2.00;;
64959;SDS011;51487;52.266;10.542;2023-03-07T16:32:11;3.35;;;1.73;;
64959;SDS011;51487;52.266;10.542;2023-03-07T16:37:06;6.25;;;1.90;;
64959;SDS011;51487;52.266;10.542;2023-03-07T16:39:32;2.60;;;1.83;;
64959;SDS011;51487;52.266;10.542;2023-03-07T16:41:58;4.07;;;2.17;;
64959;SDS011;51487;52.266;10.542;2023-03-07T16:44:24;2.97;;;1.88;;
64959;SDS011;51487;52.266;10.542;2023-03-07T16:47:04;5.65;;;2.08;;
64959;SDS011;51487;52.266;10.542;2023-03-07T16:49:39;3.42;;;2.13;;
64959;SDS011;51487;52.266;10.542;2023-03-07T16:52:04;3.83;;;1.88;;
64959;SDS011;51487;52.266;10.542;2023-03-07T16:54:30;4.72;;;1.90;;
64959;SDS011;51487;52.266;10.542;2023-03-07T16:56:56;5.80;;;2.05;;
64959;SDS011;51487;52.266;10.542;2023-03-07T16:59:26;3.67;;;1.70;;
64959;SDS011;51487;52.266;10.542;2023-03-07T17:02:01;2.58;;;2.10;;
64959;SDS011;51487;52.266;10.542;2023-03-07T17:04:40;3.83;;;1.80;;
64959;SDS011;51487;52.266;10.542;2023-03-07T17:07:24;4.40;;;2.60;;
64959;SDS011;51487;52.266;10.542;2023-03-07T17:09:50;5.53;;;2.10;;
64959;SDS011;51487;52.266;10.542;2023-03-07T17:12:18;3.28;;;1.90;;
64959;SDS011;51487;52.266;10.542;2023-03-07T17:14:47;4.93;;;2.15;;
64959;SDS011;51487;52.266;10.542;2023-03-07T17:17:16;5.75;;;3.05;;
64959;SDS011;51487;52.266;10.542;2023-03-07T17:19:48;6.78;;;2.95;;